sensor_id;sensor_type;location;lat;lon;timestamp;P1;durP1;ratioP1;P2;durP2;ratioP2
67762;SDS011;54566;52.022;5.582;2023-10-31T00:01:54;4.78;;;1.05;;
67762;SDS011;54566;52.022;5.582;2023-10-31T00:04:20;4.25;;;1.17;;
67762;SDS011;54566;52.022;5.582;2023-10-31T00:06:46;4.97;;;1.75;;
67762;SDS011;54566;52.022;5.582;2023-10-31T00:09:13;3.38;;;1.42;;
67762;SDS011;54566;52.022;5.582;2023-10-31T00:11:42;4.63;;;1.30;;
67762;SDS011;54566;52.022;5.582;2023-10-31T00:14:09;7.55;;;1.65;;
67762;SDS011;54566;52.022;5.582;2023-10-31T00:16:35;4.90;;;1.45;;
67762;SDS011;54566;52.022;5.582;2023-10-31T00:19:01;5.47;;;1.38;;
67762;SDS011;54566;52.022;5.582;2023-10-31T00:21:27;5.82;;;1.40;;
67762;SDS011;54566;52.022;5.582;2023-10-31T00:23:54;4.28;;;1.30;;
67762;SDS011;54566;52.022;5.582;2023-10-31T00:26:20;9.38;;;1.60;;
67762;SDS011;54566;52.022;5.582;2023-10-31T00:28:46;5.63;;;1.75;;
67762;SDS011;54566;52.022;5.582;2023-10-31T00:31:12;13.82;;;1.40;;
67762;SDS011;54566;52.022;5.582;2023-10-31T00:33:39;8.45;;;1.83;;
67762;SDS011;54566;52.022;5.582;2023-10-31T00:36:05;9.55;;;1.90;;
67762;SDS011;54566;52.022;5.582;2023-10-31T00:38:31;5.97;;;1.85;;
67762;SDS011;54566;52.022;5.582;2023-10-31T00:40:58;6.32;;;1.70;;
67762;SDS011;54566;52.022;5.582;2023-10-31T00:43:24;7.38;;;1.95;;
67762;SDS011;54566;52.022;5.582;2023-10-31T00:45:50;6.25;;;2.10;;
67762;SDS011;54566;52.022;5.582;2023-10-31T00:48:17;9.38;;;2.45;;
67762;SDS011;54566;52.022;5.582;2023-10-31T00:50:44;9.27;;;2.85;;
67762;SDS011;54566;52.022;5.582;2023-10-31T00:53:11;14.85;;;3.00;;
67762;SDS011;54566;52.022;5.582;2023-10-31T00:55:39;9.95;;;3.17;;
67762;SDS011;54566;52.022;5.582;2023-10-31T00:58:06;9.90;;;3.58;;
67762;SDS011;54566;52.022;5.582;2023-10-31T01:00:33;15.48;;;4.53;;
67762;SDS011;54566;52.022;5.582;2023-10-31T01:03:02;12.77;;;5.38;;
67762;SDS011;54566;52.022;5.582;2023-10-31T01:05:28;21.67;;;6.95;;
67762;SDS011;54566;52.022;5.582;2023-10-31T01:07:54;21.27;;;7.88;;
67762;SDS011;54566;52.022;5.582;2023-10-31T01:10:21;22.85;;;9.43;;
67762;SDS011;54566;52.022;5.582;2023-10-31T01:12:47;19.38;;;9.48;;
67762;SDS011;54566;52.022;5.582;2023-10-31T01:15:13;23.15;;;9.43;;
67762;SDS011;54566;52.022;5.582;2023-10-31T01:17:39;29.55;;;10.27;;
67762;SDS011;54566;52.022;5.582;2023-10-31T01:20:06;22.02;;;9.48;;
67762;SDS011;54566;52.022;5.582;2023-10-31T01:22:32;21.20;;;8.90;;
67762;SDS011;54566;52.022;5.582;2023-10-31T01:24:58;20.02;;;8.40;;
67762;SDS011;54566;52.022;5.582;2023-10-31T01:27:24;24.80;;;8.48;;
67762;SDS011;54566;52.022;5.582;2023-10-31T01:29:50;17.63;;;7.40;;
67762;SDS011;54566;52.022;5.582;2023-10-31T01:32:16;15.15;;;6.88;;
67762;SDS011;54566;52.022;5.582;2023-10-31T01:34:43;16.92;;;7.25;;
67762;SDS011;54566;52.022;5.582;2023-10-31T01:37:09;19.00;;;7.55;;
67762;SDS011;54566;52.022;5.582;2023-10-31T01:39:38;14.98;;;6.25;;
67762;SDS011;54566;52.022;5.582;2023-10-31T01:42:05;19.30;;;7.40;;
67762;SDS011;54566;52.022;5.582;2023-10-31T01:44:31;20.65;;;7.60;;
67762;SDS011;54566;52.022;5.582;2023-10-31T01:46:58;21.85;;;8.02;;
67762;SDS011;54566;52.022;5.582;2023-10-31T01:49:24;24.02;;;8.60;;
67762;SDS011;54566;52.022;5.582;2023-10-31T01:51:50;25.35;;;9.95;;
67762;SDS011;54566;52.022;5.582;2023-10-31T01:54:16;34.65;;;10.43;;
67762;SDS011;54566;52.022;5.582;2023-10-31T01:56:44;28.30;;;10.52;;
67762;SDS011;54566;52.022;5.582;2023-10-31T01:59:13;39.50;;;11.88;;
67762;SDS011;54566;52.022;5.582;2023-10-31T02:01:39;31.25;;;11.27;;
67762;SDS011;54566;52.022;5.582;2023-10-31T02:04:06;31.73;;;12.80;;
67762;SDS011;54566;52.022;5.582;2023-10-31T02:06:32;34.25;;;13.32;;
67762;SDS011;54566;52.022;5.582;2023-10-31T02:09:00;39.03;;;12.90;;
67762;SDS011;54566;52.022;5.582;2023-10-31T02:11:26;28.80;;;13.57;;
67762;SDS011;54566;52.022;5.582;2023-10-31T02:13:52;28.35;;;13.07;;
67762;SDS011;54566;52.022;5.582;2023-10-31T02:16:21;37.03;;;14.05;;
67762;SDS011;54566;52.022;5.582;2023-10-31T02:18:47;49.90;;;15.60;;
67762;SDS011;54566;52.022;5.582;2023-10-31T02:21:13;33.42;;;13.30;;
67762;SDS011;54566;52.022;5.582;2023-10-31T02:23:39;27.52;;;13.27;;
67762;SDS011;54566;52.022;5.582;2023-10-31T02:26:05;32.83;;;13.07;;
67762;SDS011;54566;52.022;5.582;2023-10-31T02:28:31;26.88;;;11.60;;
67762;SDS011;54566;52.022;5.582;2023-10-31T02:30:58;36.33;;;12.15;;
67762;SDS011;54566;52.022;5.582;2023-10-31T02:33:26;33.72;;;10.98;;
67762;SDS011;54566;52.022;5.582;2023-10-31T02:35:52;28.20;;;10.75;;
67762;SDS011;54566;52.022;5.582;2023-10-31T02:38:18;33.75;;;11.63;;
67762;SDS011;54566;52.022;5.582;2023-10-31T02:40:44;27.50;;;10.20;;
67762;SDS011;54566;52.022;5.582;2023-10-31T02:43:10;19.17;;;8.55;;
67762;SDS011;54566;52.022;5.582;2023-10-31T02:45:36;16.90;;;7.97;;
67762;SDS011;54566;52.022;5.582;2023-10-31T02:48:03;20.42;;;9.77;;
67762;SDS011;54566;52.022;5.582;2023-10-31T02:50:29;22.15;;;9.05;;
67762;SDS011;54566;52.022;5.582;2023-10-31T02:52:55;22.90;;;10.93;;
67762;SDS011;54566;52.022;5.582;2023-10-31T02:55:21;24.10;;;11.15;;
67762;SDS011;54566;52.022;5.582;2023-10-31T02:57:47;21.38;;;11.13;;
67762;SDS011;54566;52.022;5.582;2023-10-31T03:00:16;25.33;;;10.35;;
67762;SDS011;54566;52.022;5.582;2023-10-31T03:02:42;31.70;;;12.07;;
67762;SDS011;54566;52.022;5.582;2023-10-31T03:05:08;36.45;;;11.93;;
67762;SDS011;54566;52.022;5.582;2023-10-31T03:07:34;21.52;;;11.30;;
67762;SDS011;54566;52.022;5.582;2023-10-31T03:10:00;22.45;;;10.60;;
67762;SDS011;54566;52.022;5.582;2023-10-31T03:12:26;21.50;;;10.20;;
67762;SDS011;54566;52.022;5.582;2023-10-31T03:14:52;21.77;;;9.68;;
67762;SDS011;54566;52.022;5.582;2023-10-31T03:17:18;21.08;;;9.88;;
67762;SDS011;54566;52.022;5.582;2023-10-31T03:19:44;17.67;;;9.48;;
67762;SDS011;54566;52.022;5.582;2023-10-31T03:22:10;20.75;;;8.55;;
67762;SDS011;54566;52.022;5.582;2023-10-31T03:24:36;16.67;;;7.22;;
67762;SDS011;54566;52.022;5.582;2023-10-31T03:27:02;16.95;;;6.97;;
67762;SDS011;54566;52.022;5.582;2023-10-31T03:29:28;12.35;;;6.63;;
67762;SDS011;54566;52.022;5.582;2023-10-31T03:31:54;16.27;;;6.25;;
67762;SDS011;54566;52.022;5.582;2023-10-31T03:34:20;14.90;;;6.68;;
67762;SDS011;54566;52.022;5.582;2023-10-31T03:36:47;15.88;;;6.72;;
67762;SDS011;54566;52.022;5.582;2023-10-31T03:39:13;18.45;;;7.40;;
67762;SDS011;54566;52.022;5.582;2023-10-31T03:41:39;16.33;;;6.95;;
67762;SDS011;54566;52.022;5.582;2023-10-31T03:44:07;11.82;;;5.90;;
67762;SDS011;54566;52.022;5.582;2023-10-31T03:46:33;16.83;;;6.45;;
67762;SDS011;54566;52.022;5.582;2023-10-31T03:48:59;15.63;;;5.95;;
67762;SDS011;54566;52.022;5.582;2023-10-31T03:51:25;13.70;;;5.35;;
67762;SDS011;54566;52.022;5.582;2023-10-31T03:53:51;15.80;;;6.18;;
67762;SDS011;54566;52.022;5.582;2023-10-31T03:56:17;13.35;;;5.70;;
67762;SDS011;54566;52.022;5.582;2023-10-31T03:58:43;19.95;;;5.78;;
67762;SDS011;54566;52.022;5.582;2023-10-31T04:01:09;13.75;;;5.85;;
67762;SDS011;54566;52.022;5.582;2023-10-31T04:03:35;18.30;;;6.35;;
67762;SDS011;54566;52.022;5.582;2023-10-31T04:06:01;14.50;;;5.40;;
67762;SDS011;54566;52.022;5.582;2023-10-31T04:08:28;12.15;;;4.68;;
67762;SDS011;54566;52.022;5.582;2023-10-31T04:10:54;9.82;;;4.88;;
67762;SDS011;54566;52.022;5.582;2023-10-31T04:13:20;8.82;;;4.22;;
67762;SDS011;54566;52.022;5.582;2023-10-31T04:15:46;9.48;;;4.03;;
67762;SDS011;54566;52.022;5.582;2023-10-31T04:18:13;11.85;;;4.50;;
67762;SDS011;54566;52.022;5.582;2023-10-31T04:20:41;11.75;;;4.22;;
67762;SDS011;54566;52.022;5.582;2023-10-31T04:23:08;14.77;;;4.75;;
67762;SDS011;54566;52.022;5.582;2023-10-31T04:25:35;11.95;;;4.45;;
67762;SDS011;54566;52.022;5.582;2023-10-31T04:28:01;8.88;;;4.40;;
67762;SDS011;54566;52.022;5.582;2023-10-31T04:30:27;14.27;;;4.13;;
67762;SDS011;54566;52.022;5.582;2023-10-31T04:32:53;10.45;;;4.60;;
67762;SDS011;54566;52.022;5.582;2023-10-31T04:35:19;15.45;;;5.00;;
67762;SDS011;54566;52.022;5.582;2023-10-31T04:37:47;10.02;;;4.28;;
67762;SDS011;54566;52.022;5.582;2023-10-31T04:40:13;11.85;;;5.45;;
67762;SDS011;54566;52.022;5.582;2023-10-31T04:42:39;11.35;;;5.03;;
67762;SDS011;54566;52.022;5.582;2023-10-31T04:45:06;18.23;;;5.57;;
67762;SDS011;54566;52.022;5.582;2023-10-31T04:47:33;15.45;;;5.05;;
67762;SDS011;54566;52.022;5.582;2023-10-31T04:49:59;14.15;;;5.38;;
67762;SDS011;54566;52.022;5.582;2023-10-31T04:52:26;9.30;;;4.65;;
67762;SDS011;54566;52.022;5.582;2023-10-31T04:54:53;11.73;;;4.88;;
67762;SDS011;54566;52.022;5.582;2023-10-31T04:57:19;12.40;;;5.13;;
67762;SDS011;54566;52.022;5.582;2023-10-31T04:59:46;13.55;;;5.13;;
67762;SDS011;54566;52.022;5.582;2023-10-31T05:02:12;15.88;;;4.65;;
67762;SDS011;54566;52.022;5.582;2023-10-31T05:04:38;15.25;;;4.75;;
67762;SDS011;54566;52.022;5.582;2023-10-31T05:07:05;12.20;;;5.43;;
67762;SDS011;54566;52.022;5.582;2023-10-31T05:09:32;13.05;;;4.93;;
67762;SDS011;54566;52.022;5.582;2023-10-31T05:11:58;16.10;;;5.35;;
67762;SDS011;54566;52.022;5.582;2023-10-31T05:14:25;18.73;;;6.15;;
67762;SDS011;54566;52.022;5.582;2023-10-31T05:16:51;20.83;;;6.38;;
67762;SDS011;54566;52.022;5.582;2023-10-31T05:19:17;17.35;;;6.30;;
67762;SDS011;54566;52.022;5.582;2023-10-31T05:21:44;14.25;;;5.68;;
67762;SDS011;54566;52.022;5.582;2023-10-31T05:24:10;15.50;;;5.50;;
67762;SDS011;54566;52.022;5.582;2023-10-31T05:26:39;15.77;;;5.75;;
67762;SDS011;54566;52.022;5.582;2023-10-31T05:29:08;12.23;;;5.05;;
67762;SDS011;54566;52.022;5.582;2023-10-31T05:31:35;13.55;;;5.60;;
67762;SDS011;54566;52.022;5.582;2023-10-31T05:34:01;14.80;;;5.30;;
67762;SDS011;54566;52.022;5.582;2023-10-31T05:36:28;13.30;;;5.32;;
67762;SDS011;54566;52.022;5.582;2023-10-31T05:38:55;13.57;;;5.90;;
67762;SDS011;54566;52.022;5.582;2023-10-31T05:41:21;15.48;;;5.80;;
67762;SDS011;54566;52.022;5.582;2023-10-31T05:43:47;11.25;;;5.00;;
67762;SDS011;54566;52.022;5.582;2023-10-31T05:46:13;13.13;;;5.78;;
67762;SDS011;54566;52.022;5.582;2023-10-31T05:48:48;15.20;;;5.55;;
67762;SDS011;54566;52.022;5.582;2023-10-31T05:51:16;14.80;;;5.50;;
67762;SDS011;54566;52.022;5.582;2023-10-31T05:53:44;15.90;;;5.50;;
67762;SDS011;54566;52.022;5.582;2023-10-31T05:56:12;12.30;;;5.05;;
67762;SDS011;54566;52.022;5.582;2023-10-31T05:58:59;9.93;;;4.47;;
67762;SDS011;54566;52.022;5.582;2023-10-31T06:01:25;15.77;;;4.90;;
67762;SDS011;54566;52.022;5.582;2023-10-31T06:03:51;12.73;;;3.97;;
67762;SDS011;54566;52.022;5.582;2023-10-31T06:06:17;13.05;;;4.10;;
67762;SDS011;54566;52.022;5.582;2023-10-31T06:08:46;16.95;;;4.47;;
67762;SDS011;54566;52.022;5.582;2023-10-31T06:11:12;10.55;;;3.90;;
67762;SDS011;54566;52.022;5.582;2023-10-31T06:13:38;12.25;;;3.22;;
67762;SDS011;54566;52.022;5.582;2023-10-31T06:16:04;13.35;;;3.95;;
67762;SDS011;54566;52.022;5.582;2023-10-31T06:18:31;10.27;;;3.35;;
67762;SDS011;54566;52.022;5.582;2023-10-31T06:20:57;9.30;;;2.97;;
67762;SDS011;54566;52.022;5.582;2023-10-31T06:23:25;7.80;;;3.60;;
67762;SDS011;54566;52.022;5.582;2023-10-31T06:25:59;10.27;;;3.70;;
67762;SDS011;54566;52.022;5.582;2023-10-31T06:28:26;10.57;;;4.03;;
67762;SDS011;54566;52.022;5.582;2023-10-31T06:30:52;8.65;;;4.40;;
67762;SDS011;54566;52.022;5.582;2023-10-31T06:33:18;13.77;;;4.40;;
67762;SDS011;54566;52.022;5.582;2023-10-31T06:35:44;9.27;;;4.30;;
67762;SDS011;54566;52.022;5.582;2023-10-31T06:38:13;5.20;;;3.58;;
67762;SDS011;54566;52.022;5.582;2023-10-31T06:40:39;9.95;;;4.10;;
67762;SDS011;54566;52.022;5.582;2023-10-31T06:43:11;8.02;;;3.55;;
67762;SDS011;54566;52.022;5.582;2023-10-31T06:45:37;10.82;;;3.40;;
67762;SDS011;54566;52.022;5.582;2023-10-31T06:48:03;6.80;;;2.75;;
67762;SDS011;54566;52.022;5.582;2023-10-31T06:50:30;8.88;;;2.42;;
67762;SDS011;54566;52.022;5.582;2023-10-31T06:52:57;4.72;;;2.47;;
67762;SDS011;54566;52.022;5.582;2023-10-31T06:55:23;6.97;;;3.08;;
67762;SDS011;54566;52.022;5.582;2023-10-31T06:57:49;7.03;;;2.25;;
67762;SDS011;54566;52.022;5.582;2023-10-31T07:00:16;9.40;;;2.53;;
67762;SDS011;54566;52.022;5.582;2023-10-31T07:02:42;8.65;;;2.45;;
67762;SDS011;54566;52.022;5.582;2023-10-31T07:05:08;8.23;;;3.03;;
67762;SDS011;54566;52.022;5.582;2023-10-31T07:07:34;7.47;;;3.10;;
67762;SDS011;54566;52.022;5.582;2023-10-31T07:10:00;10.48;;;4.38;;
67762;SDS011;54566;52.022;5.582;2023-10-31T07:12:26;15.50;;;5.78;;
67762;SDS011;54566;52.022;5.582;2023-10-31T07:14:52;11.68;;;5.05;;
67762;SDS011;54566;52.022;5.582;2023-10-31T07:17:18;10.88;;;5.85;;
67762;SDS011;54566;52.022;5.582;2023-10-31T07:19:44;12.70;;;5.68;;
67762;SDS011;54566;52.022;5.582;2023-10-31T07:22:10;15.65;;;6.10;;
67762;SDS011;54566;52.022;5.582;2023-10-31T07:24:36;13.05;;;5.88;;
67762;SDS011;54566;52.022;5.582;2023-10-31T07:27:02;16.90;;;6.85;;
67762;SDS011;54566;52.022;5.582;2023-10-31T07:29:28;11.65;;;5.80;;
67762;SDS011;54566;52.022;5.582;2023-10-31T07:31:54;11.77;;;6.15;;
67762;SDS011;54566;52.022;5.582;2023-10-31T07:34:20;13.05;;;5.95;;
67762;SDS011;54566;52.022;5.582;2023-10-31T07:36:46;14.27;;;6.22;;
67762;SDS011;54566;52.022;5.582;2023-10-31T07:39:12;9.93;;;5.38;;
67762;SDS011;54566;52.022;5.582;2023-10-31T07:41:39;14.15;;;6.28;;
67762;SDS011;54566;52.022;5.582;2023-10-31T07:44:05;12.45;;;6.43;;
67762;SDS011;54566;52.022;5.582;2023-10-31T07:46:31;12.80;;;7.25;;
67762;SDS011;54566;52.022;5.582;2023-10-31T07:48:57;12.40;;;6.63;;
67762;SDS011;54566;52.022;5.582;2023-10-31T07:51:23;14.95;;;6.15;;
67762;SDS011;54566;52.022;5.582;2023-10-31T07:53:49;16.05;;;7.05;;
67762;SDS011;54566;52.022;5.582;2023-10-31T07:56:16;15.10;;;8.40;;
67762;SDS011;54566;52.022;5.582;2023-10-31T07:58:42;14.60;;;6.88;;
67762;SDS011;54566;52.022;5.582;2023-10-31T08:01:08;15.75;;;7.93;;
67762;SDS011;54566;52.022;5.582;2023-10-31T08:03:39;13.43;;;7.68;;
67762;SDS011;54566;52.022;5.582;2023-10-31T08:06:05;15.70;;;7.70;;
67762;SDS011;54566;52.022;5.582;2023-10-31T08:08:32;14.88;;;7.18;;
67762;SDS011;54566;52.022;5.582;2023-10-31T08:10:59;11.68;;;6.13;;
67762;SDS011;54566;52.022;5.582;2023-10-31T08:13:25;11.13;;;5.47;;
67762;SDS011;54566;52.022;5.582;2023-10-31T08:15:51;12.43;;;5.55;;
67762;SDS011;54566;52.022;5.582;2023-10-31T08:18:17;10.95;;;5.72;;
67762;SDS011;54566;52.022;5.582;2023-10-31T08:20:43;13.05;;;6.10;;
67762;SDS011;54566;52.022;5.582;2023-10-31T08:23:11;13.35;;;6.18;;
67762;SDS011;54566;52.022;5.582;2023-10-31T08:25:37;11.52;;;5.38;;
67762;SDS011;54566;52.022;5.582;2023-10-31T08:28:03;10.20;;;5.30;;
67762;SDS011;54566;52.022;5.582;2023-10-31T08:30:29;12.85;;;5.90;;
67762;SDS011;54566;52.022;5.582;2023-10-31T08:32:55;11.73;;;5.68;;
67762;SDS011;54566;52.022;5.582;2023-10-31T08:35:21;17.55;;;6.18;;
67762;SDS011;54566;52.022;5.582;2023-10-31T08:37:47;12.25;;;5.32;;
67762;SDS011;54566;52.022;5.582;2023-10-31T08:40:13;13.05;;;5.60;;
67762;SDS011;54566;52.022;5.582;2023-10-31T08:42:39;17.77;;;6.22;;
67762;SDS011;54566;52.022;5.582;2023-10-31T08:45:06;11.95;;;5.85;;
67762;SDS011;54566;52.022;5.582;2023-10-31T08:47:33;18.08;;;5.85;;
67762;SDS011;54566;52.022;5.582;2023-10-31T08:49:59;18.73;;;5.93;;
67762;SDS011;54566;52.022;5.582;2023-10-31T08:52:25;11.15;;;5.63;;
67762;SDS011;54566;52.022;5.582;2023-10-31T08:54:51;9.13;;;4.95;;
67762;SDS011;54566;52.022;5.582;2023-10-31T08:57:16;15.75;;;5.88;;
67762;SDS011;54566;52.022;5.582;2023-10-31T08:59:43;16.42;;;5.95;;
67762;SDS011;54566;52.022;5.582;2023-10-31T09:02:09;13.18;;;5.22;;
67762;SDS011;54566;52.022;5.582;2023-10-31T09:04:35;9.23;;;5.13;;
67762;SDS011;54566;52.022;5.582;2023-10-31T09:07:01;15.15;;;5.18;;
67762;SDS011;54566;52.022;5.582;2023-10-31T09:09:27;15.23;;;5.90;;
67762;SDS011;54566;52.022;5.582;2023-10-31T09:11:53;10.68;;;5.90;;
67762;SDS011;54566;52.022;5.582;2023-10-31T09:14:19;10.77;;;5.45;;
67762;SDS011;54566;52.022;5.582;2023-10-31T09:16:45;17.40;;;5.55;;
67762;SDS011;54566;52.022;5.582;2023-10-31T09:19:11;17.77;;;5.55;;
67762;SDS011;54566;52.022;5.582;2023-10-31T09:21:38;10.18;;;5.72;;
67762;SDS011;54566;52.022;5.582;2023-10-31T09:24:04;11.38;;;4.88;;
67762;SDS011;54566;52.022;5.582;2023-10-31T09:26:30;17.08;;;5.35;;
67762;SDS011;54566;52.022;5.582;2023-10-31T09:28:56;16.63;;;5.50;;
67762;SDS011;54566;52.022;5.582;2023-10-31T09:31:22;11.48;;;5.47;;
67762;SDS011;54566;52.022;5.582;2023-10-31T09:33:48;17.40;;;6.22;;
67762;SDS011;54566;52.022;5.582;2023-10-31T09:36:14;18.17;;;6.18;;
67762;SDS011;54566;52.022;5.582;2023-10-31T09:38:41;12.63;;;5.85;;
67762;SDS011;54566;52.022;5.582;2023-10-31T09:41:07;15.60;;;6.05;;
67762;SDS011;54566;52.022;5.582;2023-10-31T09:43:33;12.90;;;5.97;;
67762;SDS011;54566;52.022;5.582;2023-10-31T09:45:59;12.32;;;5.95;;
67762;SDS011;54566;52.022;5.582;2023-10-31T09:48:25;15.77;;;6.22;;
67762;SDS011;54566;52.022;5.582;2023-10-31T09:50:51;13.50;;;5.93;;
67762;SDS011;54566;52.022;5.582;2023-10-31T09:53:18;15.45;;;5.90;;
67762;SDS011;54566;52.022;5.582;2023-10-31T09:55:46;16.17;;;6.57;;
67762;SDS011;54566;52.022;5.582;2023-10-31T09:58:12;15.95;;;6.35;;
67762;SDS011;54566;52.022;5.582;2023-10-31T10:00:38;15.05;;;5.20;;
67762;SDS011;54566;52.022;5.582;2023-10-31T10:03:08;14.50;;;6.57;;
67762;SDS011;54566;52.022;5.582;2023-10-31T10:05:37;13.60;;;5.72;;
67762;SDS011;54566;52.022;5.582;2023-10-31T10:08:04;13.55;;;5.43;;
67762;SDS011;54566;52.022;5.582;2023-10-31T10:10:30;15.98;;;5.53;;
67762;SDS011;54566;52.022;5.582;2023-10-31T10:12:56;12.05;;;5.55;;
67762;SDS011;54566;52.022;5.582;2023-10-31T10:15:23;16.65;;;5.93;;
67762;SDS011;54566;52.022;5.582;2023-10-31T10:17:53;13.63;;;5.03;;
67762;SDS011;54566;52.022;5.582;2023-10-31T10:20:19;9.82;;;5.28;;
67762;SDS011;54566;52.022;5.582;2023-10-31T10:22:45;13.30;;;4.70;;
67762;SDS011;54566;52.022;5.582;2023-10-31T10:25:17;17.52;;;5.60;;
67762;SDS011;54566;52.022;5.582;2023-10-31T10:27:44;13.35;;;4.55;;
67762;SDS011;54566;52.022;5.582;2023-10-31T10:30:12;17.60;;;4.80;;
67762;SDS011;54566;52.022;5.582;2023-10-31T10:32:38;15.15;;;4.55;;
67762;SDS011;54566;52.022;5.582;2023-10-31T10:35:04;15.00;;;4.25;;
67762;SDS011;54566;52.022;5.582;2023-10-31T10:37:31;18.10;;;4.07;;
67762;SDS011;54566;52.022;5.582;2023-10-31T10:39:57;9.82;;;3.80;;
67762;SDS011;54566;52.022;5.582;2023-10-31T10:44:58;14.88;;;4.63;;
67762;SDS011;54566;52.022;5.582;2023-10-31T10:47:26;11.82;;;4.43;;
67762;SDS011;54566;52.022;5.582;2023-10-31T10:49:53;13.82;;;4.18;;
67762;SDS011;54566;52.022;5.582;2023-10-31T10:52:22;13.90;;;5.35;;
67762;SDS011;54566;52.022;5.582;2023-10-31T10:54:52;15.80;;;4.40;;
67762;SDS011;54566;52.022;5.582;2023-10-31T10:59:59;15.35;;;4.95;;
67762;SDS011;54566;52.022;5.582;2023-10-31T11:02:27;13.27;;;4.68;;
67762;SDS011;54566;52.022;5.582;2023-10-31T11:04:55;12.70;;;4.73;;
67762;SDS011;54566;52.022;5.582;2023-10-31T11:07:21;13.25;;;5.20;;
67762;SDS011;54566;52.022;5.582;2023-10-31T11:09:49;22.98;;;5.45;;
67762;SDS011;54566;52.022;5.582;2023-10-31T11:12:15;15.02;;;6.10;;
67762;SDS011;54566;52.022;5.582;2023-10-31T11:14:42;15.50;;;6.00;;
67762;SDS011;54566;52.022;5.582;2023-10-31T11:17:20;20.52;;;5.10;;
67762;SDS011;54566;52.022;5.582;2023-10-31T11:19:50;12.55;;;6.03;;
67762;SDS011;54566;52.022;5.582;2023-10-31T11:22:17;16.58;;;6.05;;
67762;SDS011;54566;52.022;5.582;2023-10-31T11:24:43;11.75;;;5.93;;
67762;SDS011;54566;52.022;5.582;2023-10-31T11:27:09;12.70;;;6.68;;
67762;SDS011;54566;52.022;5.582;2023-10-31T11:29:36;13.80;;;6.95;;
67762;SDS011;54566;52.022;5.582;2023-10-31T11:32:03;12.70;;;6.40;;
67762;SDS011;54566;52.022;5.582;2023-10-31T11:34:29;18.73;;;7.10;;
67762;SDS011;54566;52.022;5.582;2023-10-31T11:39:43;15.63;;;7.88;;
67762;SDS011;54566;52.022;5.582;2023-10-31T11:42:26;13.73;;;8.82;;
67762;SDS011;54566;52.022;5.582;2023-10-31T11:44:56;19.20;;;8.40;;
67762;SDS011;54566;52.022;5.582;2023-10-31T11:47:22;17.27;;;9.05;;
67762;SDS011;54566;52.022;5.582;2023-10-31T11:49:49;18.00;;;8.70;;
67762;SDS011;54566;52.022;5.582;2023-10-31T11:52:18;16.00;;;8.65;;
67762;SDS011;54566;52.022;5.582;2023-10-31T11:54:44;18.77;;;9.25;;
67762;SDS011;54566;52.022;5.582;2023-10-31T11:57:24;16.25;;;9.70;;
67762;SDS011;54566;52.022;5.582;2023-10-31T12:00:01;20.23;;;10.55;;
67762;SDS011;54566;52.022;5.582;2023-10-31T12:02:30;17.17;;;9.75;;
67762;SDS011;54566;52.022;5.582;2023-10-31T12:05:06;19.00;;;10.23;;
67762;SDS011;54566;52.022;5.582;2023-10-31T12:07:53;19.02;;;10.35;;
67762;SDS011;54566;52.022;5.582;2023-10-31T12:10:25;20.92;;;10.80;;
67762;SDS011;54566;52.022;5.582;2023-10-31T12:12:55;25.48;;;11.52;;
67762;SDS011;54566;52.022;5.582;2023-10-31T12:15:21;25.42;;;12.88;;
67762;SDS011;54566;52.022;5.582;2023-10-31T12:17:49;20.42;;;12.45;;
67762;SDS011;54566;52.022;5.582;2023-10-31T12:20:15;21.67;;;12.77;;
67762;SDS011;54566;52.022;5.582;2023-10-31T12:22:43;31.15;;;13.82;;
67762;SDS011;54566;52.022;5.582;2023-10-31T12:25:11;25.55;;;13.95;;
67762;SDS011;54566;52.022;5.582;2023-10-31T12:27:50;30.70;;;14.73;;
67762;SDS011;54566;52.022;5.582;2023-10-31T12:30:19;28.42;;;14.80;;
67762;SDS011;54566;52.022;5.582;2023-10-31T12:32:52;36.63;;;14.98;;
67762;SDS011;54566;52.022;5.582;2023-10-31T12:35:25;38.42;;;14.48;;
67762;SDS011;54566;52.022;5.582;2023-10-31T12:37:52;43.08;;;14.73;;
67762;SDS011;54566;52.022;5.582;2023-10-31T12:40:22;31.27;;;14.85;;
67762;SDS011;54566;52.022;5.582;2023-10-31T12:42:57;33.38;;;14.73;;
67762;SDS011;54566;52.022;5.582;2023-10-31T12:45:32;31.45;;;14.07;;
67762;SDS011;54566;52.022;5.582;2023-10-31T12:48:06;32.08;;;14.27;;
67762;SDS011;54566;52.022;5.582;2023-10-31T12:50:42;26.38;;;13.48;;
67762;SDS011;54566;52.022;5.582;2023-10-31T12:53:22;36.92;;;13.52;;
67762;SDS011;54566;52.022;5.582;2023-10-31T12:56:10;24.00;;;12.35;;
67762;SDS011;54566;52.022;5.582;2023-10-31T12:58:36;26.08;;;11.77;;
67762;SDS011;54566;52.022;5.582;2023-10-31T13:01:10;26.77;;;12.23;;
67762;SDS011;54566;52.022;5.582;2023-10-31T13:03:51;26.98;;;11.85;;
67762;SDS011;54566;52.022;5.582;2023-10-31T13:06:17;33.33;;;12.02;;
67762;SDS011;54566;52.022;5.582;2023-10-31T13:08:49;26.30;;;11.38;;
67762;SDS011;54566;52.022;5.582;2023-10-31T13:11:15;30.42;;;11.82;;
67762;SDS011;54566;52.022;5.582;2023-10-31T13:13:53;24.50;;;12.10;;
67762;SDS011;54566;52.022;5.582;2023-10-31T13:16:19;28.17;;;13.38;;
67762;SDS011;54566;52.022;5.582;2023-10-31T13:18:48;23.42;;;12.75;;
67762;SDS011;54566;52.022;5.582;2023-10-31T13:21:19;29.80;;;12.77;;
67762;SDS011;54566;52.022;5.582;2023-10-31T13:23:46;24.25;;;12.60;;
67762;SDS011;54566;52.022;5.582;2023-10-31T13:26:15;22.17;;;11.35;;
67762;SDS011;54566;52.022;5.582;2023-10-31T13:28:47;20.77;;;10.20;;
67762;SDS011;54566;52.022;5.582;2023-10-31T13:31:13;24.40;;;11.00;;
67762;SDS011;54566;52.022;5.582;2023-10-31T13:33:56;17.45;;;10.50;;
67762;SDS011;54566;52.022;5.582;2023-10-31T13:36:26;20.83;;;10.30;;
67762;SDS011;54566;52.022;5.582;2023-10-31T13:38:57;24.88;;;11.25;;
67762;SDS011;54566;52.022;5.582;2023-10-31T13:41:34;17.13;;;11.80;;
67762;SDS011;54566;52.022;5.582;2023-10-31T13:44:00;24.00;;;12.77;;
67762;SDS011;54566;52.022;5.582;2023-10-31T13:46:28;24.75;;;13.20;;
67762;SDS011;54566;52.022;5.582;2023-10-31T13:48:57;22.77;;;12.85;;
67762;SDS011;54566;52.022;5.582;2023-10-31T13:51:23;18.33;;;10.40;;
67762;SDS011;54566;52.022;5.582;2023-10-31T13:56:50;23.55;;;12.77;;
67762;SDS011;54566;52.022;5.582;2023-10-31T13:59:29;20.00;;;11.90;;
67762;SDS011;54566;52.022;5.582;2023-10-31T14:02:00;26.55;;;12.38;;
67762;SDS011;54566;52.022;5.582;2023-10-31T14:04:35;22.25;;;12.52;;
67762;SDS011;54566;52.022;5.582;2023-10-31T14:07:08;21.83;;;13.07;;
67762;SDS011;54566;52.022;5.582;2023-10-31T14:12:12;23.60;;;13.18;;
67762;SDS011;54566;52.022;5.582;2023-10-31T14:14:39;20.70;;;13.93;;
67762;SDS011;54566;52.022;5.582;2023-10-31T14:17:17;24.52;;;15.35;;
67762;SDS011;54566;52.022;5.582;2023-10-31T14:19:44;23.35;;;14.90;;
67762;SDS011;54566;52.022;5.582;2023-10-31T14:22:12;25.98;;;16.40;;
67762;SDS011;54566;52.022;5.582;2023-10-31T14:24:58;23.73;;;15.32;;
67762;SDS011;54566;52.022;5.582;2023-10-31T14:27:32;28.00;;;16.60;;
67762;SDS011;54566;52.022;5.582;2023-10-31T14:30:09;23.02;;;15.93;;
67762;SDS011;54566;52.022;5.582;2023-10-31T14:33:05;23.52;;;16.73;;
67762;SDS011;54566;52.022;5.582;2023-10-31T14:38:20;24.70;;;15.60;;
67762;SDS011;54566;52.022;5.582;2023-10-31T14:40:50;24.52;;;14.82;;
67762;SDS011;54566;52.022;5.582;2023-10-31T14:43:20;23.67;;;13.73;;
67762;SDS011;54566;52.022;5.582;2023-10-31T14:45:46;21.35;;;12.90;;
67762;SDS011;54566;52.022;5.582;2023-10-31T14:48:12;20.20;;;12.55;;
67762;SDS011;54566;52.022;5.582;2023-10-31T14:50:41;22.15;;;11.50;;
67762;SDS011;54566;52.022;5.582;2023-10-31T14:53:16;17.75;;;10.18;;